Chicago, IL

11:31 PM CDT on June 23, 2018 (GMT -0500)
Chicago-O'Hare International | | Change Station
Active Advisory: Flood Warning, Flood Advisory Active Notice: Flood Advisory

Elev 666 ft 41.98 °N, 87.90 °W | Updated 40 minutes ago

Overcast
Overcast
72 °F
Feels Like 72 °F
N
6
Wind Variable Wind from WSW

Today
High -- | Low -- °F
--% Chance of Precip.
Yesterday
High -- | Low -- °F
Precip. -- in
Pressure 29.79 in
Visibility 10.0 miles
Clouds Mostly Cloudy 11000 ft
Overcast 20000 ft
Dew Point 63 °F
Humidity 73%
Rainfall 0.00 in
Snow Depth Not available.
5:16 AM 8:31 PM
Waxing Gibbous, 85% visible
METAR KORD 240351Z 24005KT 10SM BKN110 OVC200 22/17 A2980 RMK AO2 SLP087 T02220172
Pressure 29.79 in
Visibility 10.0 miles
Clouds Mostly Cloudy 11000 ft
Overcast 20000 ft
Dew Point 63 °F
Humidity 73%
Rainfall 0.00 in
Snow Depth Not available.
5:16 AM 8:31 PM
Waxing Gibbous, 85% visible
METAR KORD 240351Z 24005KT 10SM BKN110 OVC200 22/17 A2980 RMK AO2 SLP087 T02220172

Get Your Daily Forecast Email!

Thanks for signing up!

Be on the lookout for a verification email in your inbox.

You'll start receiving severe weather alerts in your inbox..

×

10-Day Weather Forecast

Almanac

Astronomy

Jun. 23, 2018 Rise Set
Actual Time
Civil Twilight
Nautical Twilight
Astronomical Twilight
Moon
Length of Visible Light
Length of Day
Tomorrow will be .
, % of the Moon is Illuminated

Today's Extremes

State Highs State Lows

Community

WunderPhotos

Category 6

Welcome to Category 6. This is the collective home for Weather Underground's featured writeups by Dr. Jeff Masters (right), Bob Henson (left), Chris Burt, and other regular contributors.

Nearby

Air Quality

  Air Quality AQ Index Pollutant
Not available.

Snow Depth

Station Depth Elevation

Earthquake Activity

City Distance Mag. Time & Date
Minimum magnitude displayed is 2.5.

Coastal Water Temperatures

Place Temperature

Stations

Nearby Weather Stations

Station Location Temp. Windchill Dew Point Humidity Wind Precip. Elev Updated Type
                   

Watches & Warnings

Flood Warning
Issued: 8:30 PM CDT Jun. 23, 2018 – National Weather Service

The Flood Warning continues for
the Des Plaines river near Des Plaines.
* Until late Sunday night.
* At 745 PM Saturday the stage was 15.5 feet.
* Flood stage is 15.0 feet.
* Minor flooding is occurring and minor flooding is forecast.
* Forecast... the river will continue to fall to below flood stage by
Sunday evening.
* Impact... at 15.5 feet... water reaches some backyards along Big Bend
drive.


Lat... Lon 4212 8784 4196 8780 4196 8790 4212 8794





Flood Advisory
Issued: 8:44 PM CDT Jun. 23, 2018 – National Weather Service

The flood advisory continues for
the Des Plaines river at River Forest
* until Sunday morning.
* At 800 PM Saturday the stage was 13.4 feet.
* Action stage is 13.0 feet.
* Flood stage is 16.0 feet.
* Forecast... the river will continue to fall.


Lat... Lon 4196 8790 4197 8780 4187 8777 4186 8787